createdAt,value
2023-05-12T00:03:08.038Z,2.28
2023-05-12T00:08:11.928Z,2.10
2023-05-12T00:13:15.799Z,1.90
2023-05-12T00:18:20.973Z,1.88
2023-05-12T00:23:24.659Z,1.92
2023-05-12T00:28:28.111Z,1.70
2023-05-12T00:33:32.929Z,1.92
2023-05-12T00:38:37.355Z,1.75
2023-05-12T00:43:40.876Z,2.05
2023-05-12T00:48:46.245Z,1.98
2023-05-12T00:53:51.423Z,2.00
2023-05-12T00:58:54.860Z,1.98
2023-05-12T01:04:00.185Z,1.98
2023-05-12T01:09:04.268Z,2.10
2023-05-12T01:14:07.689Z,2.10
2023-05-12T01:19:41.702Z,2.00
2023-05-12T01:24:55.205Z,1.83
2023-05-12T01:30:03.254Z,1.90
2023-05-12T01:35:11.335Z,1.88
2023-05-12T01:40:19.806Z,1.98
2023-05-12T01:45:25.571Z,1.88
2023-05-12T01:50:30.450Z,2.10
2023-05-12T01:55:34.846Z,1.92
2023-05-12T02:00:40.205Z,1.83
2023-05-12T02:05:49.625Z,1.80
2023-05-12T02:11:07.045Z,2.00
2023-05-12T02:16:12.699Z,2.00
2023-05-12T02:21:17.217Z,1.70
2023-05-12T02:26:21.229Z,1.75
2023-05-12T02:31:26.511Z,1.80
2023-05-12T02:36:30.146Z,1.90
2023-05-12T02:41:33.560Z,1.85
2023-05-12T02:46:38.715Z,1.85
2023-05-12T02:56:58.428Z,1.77
2023-05-12T03:02:03.241Z,1.65
2023-05-12T03:07:08.852Z,1.73
2023-05-12T03:12:16.735Z,1.85
2023-05-12T03:17:22.052Z,1.70
2023-05-12T03:22:27.713Z,1.60
2023-05-12T03:27:36.462Z,1.60
2023-05-12T03:32:42.043Z,1.83
2023-05-12T03:37:49.086Z,1.70
2023-05-12T03:42:55.711Z,1.60
2023-05-12T03:48:00.592Z,1.50
2023-05-12T03:53:05.962Z,1.55
2023-05-12T03:58:15.810Z,1.60
2023-05-12T04:03:21.758Z,1.70
2023-05-12T04:08:27.462Z,1.40
2023-05-12T04:13:34.250Z,1.40
2023-05-12T04:18:39.221Z,1.73
2023-05-12T04:23:46.241Z,1.57
2023-05-12T04:28:53.438Z,1.50
2023-05-12T04:33:58.567Z,1.87
2023-05-12T04:39:03.837Z,1.63
2023-05-12T04:44:12.466Z,1.50
2023-05-12T04:49:18.429Z,1.48
2023-05-12T04:54:26.049Z,1.50
2023-05-12T04:59:34.791Z,1.60
2023-05-12T05:04:39.820Z,1.50
2023-05-12T05:09:45.658Z,1.50
2023-05-12T05:14:52.678Z,1.55
2023-05-12T05:19:59.564Z,1.30
2023-05-12T05:25:11.265Z,1.38
2023-05-12T05:30:17.849Z,1.50
2023-05-12T05:35:23.878Z,1.50
2023-05-12T05:40:36.046Z,1.60
2023-05-12T05:45:51.953Z,1.52
2023-05-12T05:51:00.670Z,1.50
2023-05-12T05:56:06.282Z,1.40
2023-05-12T06:01:14.441Z,1.50
2023-05-12T06:06:19.771Z,1.65
2023-05-12T06:11:24.796Z,1.60
2023-05-12T06:16:31.393Z,1.38
2023-05-12T06:21:36.349Z,1.30
2023-05-12T06:26:41.703Z,1.23
2023-05-12T06:31:48.126Z,1.40
2023-05-12T06:36:55.123Z,1.35
2023-05-12T06:42:02.437Z,1.15
2023-05-12T06:47:20.170Z,1.25
2023-05-12T06:52:27.138Z,1.00
2023-05-12T06:57:32.051Z,1.20
2023-05-12T07:02:38.321Z,1.08
2023-05-12T07:07:43.162Z,1.27
2023-05-12T07:12:48.628Z,1.10
2023-05-12T07:17:56.081Z,1.20
2023-05-12T07:28:06.188Z,1.10
2023-05-12T07:33:13.400Z,1.00
2023-05-12T07:38:18.424Z,0.95
2023-05-12T07:43:23.233Z,1.00
2023-05-12T07:48:30.176Z,0.90
2023-05-12T07:53:35.153Z,0.93
2023-05-12T07:58:40.384Z,1.40
2023-05-12T08:03:46.855Z,1.00
2023-05-12T08:08:51.807Z,1.10
2023-05-12T08:13:56.680Z,1.08
2023-05-12T08:19:02.888Z,1.00
2023-05-12T08:24:08.285Z,1.00
2023-05-12T08:29:13.243Z,1.10
2023-05-12T08:34:19.927Z,1.00
2023-05-12T08:39:25.245Z,1.08
2023-05-12T08:44:31.533Z,1.10
2023-05-12T08:49:39.131Z,0.90
2023-05-12T09:00:02.287Z,1.00
2023-05-12T09:05:09.986Z,1.17
2023-05-12T09:15:46.377Z,1.25
2023-05-12T09:20:52.974Z,1.20
2023-05-12T09:26:04.245Z,1.08
2023-05-12T09:31:20.961Z,1.13
2023-05-12T09:36:28.350Z,1.07
2023-05-12T09:41:33.633Z,1.30
2023-05-12T09:46:40.010Z,1.30
2023-05-12T09:51:46.635Z,1.27
2023-05-12T09:56:52.089Z,1.30
2023-05-12T10:02:02.084Z,1.65
2023-05-12T10:07:12.220Z,1.45
2023-05-12T10:12:19.053Z,1.50
2023-05-12T10:17:24.551Z,1.67
2023-05-12T10:22:32.960Z,1.52
2023-05-12T10:27:38.266Z,1.60
2023-05-12T10:32:43.055Z,1.40
2023-05-12T10:37:49.839Z,1.60
2023-05-12T10:42:54.676Z,1.67
2023-05-12T10:48:10.212Z,1.50
2023-05-12T10:53:18.350Z,1.60
2023-05-12T10:58:23.491Z,1.40
2023-05-12T11:03:29.202Z,1.50
2023-05-12T11:08:40.092Z,1.67
2023-05-12T11:13:47.375Z,1.40
2023-05-12T11:19:05.825Z,1.40
2023-05-12T11:24:15.300Z,1.42
2023-05-12T11:29:21.256Z,1.40
2023-05-12T11:34:28.203Z,1.60
2023-05-12T11:39:34.801Z,1.47
2023-05-12T11:44:49.228Z,1.50
2023-05-12T11:49:57.761Z,1.60
2023-05-12T11:55:06.298Z,1.27
2023-05-12T12:00:13.357Z,1.58
2023-05-12T12:05:22.930Z,1.40
2023-05-12T12:10:29.476Z,1.25
2023-05-12T12:15:34.403Z,1.30
2023-05-12T12:20:39.501Z,1.15
2023-05-12T12:25:47.658Z,1.15
2023-05-12T12:30:54.132Z,1.20
2023-05-12T12:35:59.147Z,1.10
2023-05-12T12:41:05.976Z,1.00
2023-05-12T12:46:11.301Z,1.13
2023-05-12T12:51:16.357Z,0.95
2023-05-12T12:56:24.982Z,1.10
2023-05-12T13:01:30.379Z,1.00
2023-05-12T13:06:36.133Z,1.10
2023-05-12T13:11:42.795Z,1.02
2023-05-12T13:16:48.557Z,1.30
2023-05-12T13:21:54.145Z,0.80
2023-05-12T13:27:00.589Z,1.10
2023-05-12T13:32:06.262Z,0.80
2023-05-12T13:37:11.506Z,1.10
2023-05-12T13:42:18.445Z,0.80
2023-05-12T13:47:23.312Z,0.93
2023-05-12T13:52:28.365Z,0.88
2023-05-12T13:57:36.014Z,0.98
2023-05-12T14:02:41.242Z,0.93
2023-05-12T14:07:46.120Z,0.93
2023-05-12T14:12:52.570Z,0.95
2023-05-12T14:17:57.626Z,1.08
2023-05-12T14:23:02.530Z,0.93
2023-05-12T14:28:09.194Z,1.00
2023-05-12T14:33:14.333Z,0.98
2023-05-12T14:38:19.218Z,0.90
2023-05-12T14:43:25.624Z,1.10
2023-05-12T14:48:31.913Z,1.00
2023-05-12T14:53:37.159Z,1.00
2023-05-12T14:58:43.769Z,0.90
2023-05-12T15:03:48.927Z,1.00
2023-05-12T15:08:54.958Z,0.80
2023-05-12T15:14:04.502Z,0.95
2023-05-12T15:19:09.826Z,0.80
2023-05-12T15:24:14.844Z,0.88
2023-05-12T15:29:22.746Z,0.90
2023-05-12T15:34:27.599Z,0.90
2023-05-12T15:39:34.130Z,0.90
2023-05-12T15:44:44.751Z,0.90
2023-05-12T15:49:51.181Z,1.00
2023-05-12T15:54:56.589Z,0.90
2023-05-12T16:00:05.717Z,1.00
2023-05-12T16:05:20.173Z,1.10
2023-05-12T16:10:26.868Z,1.30
2023-05-12T16:15:34.850Z,1.20
2023-05-12T16:20:42.064Z,1.10
2023-05-12T16:25:49.365Z,4.50
2023-05-12T16:30:57.552Z,12.15
2023-05-12T16:36:03.851Z,12.63
2023-05-12T16:41:10.100Z,15.05
2023-05-12T16:46:18.314Z,15.85
2023-05-12T16:51:24.876Z,21.50
2023-05-12T16:56:31.165Z,18.10
2023-05-12T17:01:39.918Z,20.98
2023-05-12T17:06:44.782Z,20.20
2023-05-12T17:11:49.876Z,16.33
2023-05-12T17:16:56.442Z,16.55
2023-05-12T17:22:01.686Z,18.00
2023-05-12T17:27:07.162Z,19.60
2023-05-12T17:32:15.281Z,21.75
2023-05-12T17:37:20.646Z,19.45
2023-05-12T17:42:28.932Z,15.40
2023-05-12T17:47:35.190Z,13.65
2023-05-12T17:52:40.691Z,11.68
2023-05-12T17:57:45.515Z,12.77
2023-05-12T18:02:52.513Z,12.00
2023-05-12T18:07:57.478Z,10.70
2023-05-12T18:13:02.849Z,9.05
2023-05-12T18:18:10.401Z,7.82
2023-05-12T18:28:21.541Z,7.13
2023-05-12T18:33:31.658Z,6.53
2023-05-12T18:38:36.697Z,5.80
2023-05-12T18:43:45.089Z,5.50
2023-05-12T18:48:55.452Z,4.97
2023-05-12T18:54:01.409Z,4.80
2023-05-12T18:59:07.809Z,4.70
2023-05-12T19:04:14.894Z,4.40
2023-05-12T19:09:20.780Z,4.20
2023-05-12T19:14:25.933Z,4.45
2023-05-12T19:19:32.305Z,3.88
2023-05-12T19:24:38.247Z,4.00
2023-05-12T19:29:43.058Z,3.90
2023-05-12T19:34:51.246Z,3.72
2023-05-12T19:39:55.741Z,3.78
2023-05-12T19:45:01.068Z,3.50
2023-05-12T19:50:09.760Z,3.20
2023-05-12T19:55:13.726Z,3.90
2023-05-12T20:00:22.335Z,3.33
2023-05-12T20:05:30.125Z,3.22
2023-05-12T20:10:34.965Z,3.20
2023-05-12T20:15:40.379Z,3.10
2023-05-12T20:20:46.910Z,3.08
2023-05-12T20:25:53.042Z,3.17
2023-05-12T20:30:58.789Z,3.10
2023-05-12T20:36:05.609Z,3.10
2023-05-12T20:41:11.727Z,3.00
2023-05-12T20:46:17.160Z,3.20
2023-05-12T20:51:23.914Z,2.97
2023-05-12T20:56:28.788Z,2.80
2023-05-12T21:01:33.818Z,2.65
2023-05-12T21:06:40.581Z,2.80
2023-05-12T21:11:45.441Z,3.00
2023-05-12T21:16:50.892Z,2.78
2023-05-12T21:21:57.263Z,2.65
2023-05-12T21:27:04.840Z,2.70
2023-05-12T21:37:17.807Z,2.63
2023-05-12T21:42:24.650Z,2.58
2023-05-12T21:47:30.664Z,2.60
2023-05-12T21:52:39.948Z,2.83
2023-05-12T21:57:46.628Z,2.75
2023-05-12T22:02:51.915Z,2.70
2023-05-12T22:07:58.574Z,2.50
2023-05-12T22:13:03.538Z,2.40
2023-05-12T22:18:08.861Z,2.30
2023-05-12T22:23:15.306Z,2.50
2023-05-12T22:28:21.223Z,2.22
2023-05-12T22:33:26.637Z,2.10
2023-05-12T22:38:33.211Z,2.20
2023-05-12T22:43:38.084Z,2.60
2023-05-12T22:48:43.472Z,2.20
2023-05-12T22:53:49.648Z,2.22
2023-05-12T22:58:54.680Z,2.30
2023-05-12T23:03:59.822Z,2.05
2023-05-12T23:09:06.191Z,2.05
2023-05-12T23:14:11.663Z,2.25
2023-05-12T23:19:16.936Z,2.25
2023-05-12T23:24:25.250Z,2.05
2023-05-12T23:29:31.186Z,2.08
2023-05-12T23:34:36.635Z,2.30
2023-05-12T23:39:44.971Z,2.00
2023-05-12T23:44:50.628Z,2.20
2023-05-12T23:49:55.846Z,2.10
2023-05-12T23:55:02.593Z,2.10
